Northfield, Minnesota
Current Conditions -  °F | °C
As of 12:34 AM on Saturday 25 Oct 2014 (Local Time) from KSYN Reporting Station
Clear Clear  
Wind Chill: 56°   Ceiling: Unl
Heat Index: 56°   Visibility: 10mi
Dew Point: 47°   Wind: 7mph
Humidity: 73%   Direction: 260°W
Pressure: 29.9"   Gusts: NA
Location:  44.45°N, 93.15°W
Report Text: KSYN 250534Z AUTO 26006KT 10SM CLR 13/09 A2990 RMK AO2 T01320085
Loading
Personal Weather Stations






























Interactive Weather Map
Tropical Storm Tracking
New forecast layout! Learn more

10-Day Weather Forecast

Advertisements
Track Severe Weather on mobile